Time;durP1;ratioP1;P1;durP2;ratioP2;P2;SDS_P1;SDS_P2;PMS_P1;PMS_P2;Temp;Humidity;BMP_temperature;BMP_pressure;BME280_temperature;BME280_humidity;BME280_pressure;Samples;Min_cycle;Max_cycle;Signal;HPM_P1;HPM_P2
2022/01/17 00:00:37;;;;;;;29.40;17.10;;;;;;;1.86;84.42;100018.74;84522;1332;22583;-80
2022/01/17 00:02:54;;;;;;;30.70;15.70;;;;;;;1.87;84.54;100012.90;84498;1331;22618;-81
2022/01/17 00:05:03;;;;;;;25.40;15.80;;;;;;;1.88;84.45;100009.45;83799;1335;1002997;-80
2022/01/17 00:07:12;;;;;;;25.90;14.60;;;;;;;1.88;84.63;99999.13;84474;1335;22677;-81
2022/01/17 00:09:22;;;;;;;24.00;14.90;;;;;;;1.89;84.58;99992.94;84510;1332;22630;-80
2022/01/17 00:11:31;;;;;;;27.10;15.50;;;;;;;1.90;84.38;99989.81;84499;1332;22928;-80
2022/01/17 00:13:40;;;;;;;26.20;16.20;;;;;;;1.91;84.74;99988.09;84531;1332;22630;-79
2022/01/17 00:15:54;;;;;;;34.10;18.90;;;;;;;1.92;84.95;99984.98;84530;1327;22727;-79
2022/01/17 00:18:27;;;;;;;30.80;16.00;;;;;;;1.92;84.78;99980.70;84500;1332;22604;-79
2022/01/17 00:20:36;;;;;;;32.20;16.90;;;;;;;1.94;84.85;99979.30;84448;1335;22847;-77
2022/01/17 00:22:47;;;;;;;27.70;16.30;;;;;;;1.95;84.96;99971.19;84509;1332;22634;-78
2022/01/17 00:24:59;;;;;;;27.70;16.40;;;;;;;1.98;84.85;99964.80;84510;1335;22614;-78
2022/01/17 00:27:12;;;;;;;30.10;17.40;;;;;;;2.00;85.01;99944.32;84501;1335;22692;-78
2022/01/17 00:29:21;;;;;;;28.90;17.00;;;;;;;1.99;85.10;99942.27;83790;1331;1003939;-78
2022/01/17 00:31:30;;;;;;;33.30;19.00;;;;;;;1.98;85.04;99950.19;84458;1334;24440;-79
2022/01/17 00:33:39;;;;;;;29.10;16.20;;;;;;;1.97;85.28;99939.02;84516;1332;22692;-79
2022/01/17 00:35:48;;;;;;;30.70;17.80;;;;;;;1.96;85.17;99934.71;84537;1330;24386;-79
2022/01/17 00:38:01;;;;;;;30.20;17.20;;;;;;;1.97;84.94;99929.71;84418;1335;22890;-79
2022/01/17 00:40:14;;;;;;;28.00;16.50;;;;;;;1.99;85.50;99925.23;84494;1331;22640;-80
2022/01/17 00:42:23;;;;;;;30.70;16.30;;;;;;;2.00;85.25;99920.22;84526;1333;23718;-81
2022/01/17 00:44:32;;;;;;;31.20;16.90;;;;;;;2.01;85.30;99912.30;84539;1332;22666;-81
2022/01/17 00:46:42;;;;;;;31.60;18.40;;;;;;;2.03;85.35;99912.30;84484;1332;23954;-79
2022/01/17 00:48:54;;;;;;;31.20;17.20;;;;;;;2.04;85.47;99908.83;84514;1333;22720;-80
2022/01/17 00:51:10;;;;;;;32.90;17.70;;;;;;;2.06;85.26;99901.42;84496;1323;22759;-79
2022/01/17 00:53:19;;;;;;;34.90;17.00;;;;;;;2.06;85.17;99897.98;84505;1332;24025;-79
2022/01/17 00:55:31;;;;;;;35.60;18.30;;;;;;;2.09;85.40;99895.72;84537;1334;22636;-80
2022/01/17 00:57:44;;;;;;;33.40;17.50;;;;;;;2.11;85.34;99897.58;84518;1332;22626;-80
2022/01/17 00:59:53;;;;;;;32.90;18.20;;;;;;;2.12;85.46;99896.54;84487;1332;22663;-79
2022/01/17 01:02:02;;;;;;;34.00;18.60;;;;;;;2.13;85.43;99899.96;84461;1336;24293;-80
2022/01/17 01:04:11;;;;;;;33.70;17.50;;;;;;;2.14;85.35;99902.88;84523;1332;22623;-79
2022/01/17 01:06:23;;;;;;;36.10;19.70;;;;;;;2.15;85.52;99902.70;84494;1330;22793;-79
2022/01/17 01:08:36;;;;;;;30.20;16.20;;;;;;;2.14;85.45;99895.98;84511;1332;22713;-79
2022/01/17 01:10:45;;;;;;;32.70;18.10;;;;;;;2.14;85.49;99886.02;84340;1334;22693;-79
2022/01/17 01:12:54;;;;;;;31.60;18.30;;;;;;;2.16;85.76;99884.09;84517;1332;23941;-79
2022/01/17 01:15:11;;;;;;;31.50;18.20;;;;;;;2.17;85.70;99883.06;84527;1334;22729;-79
2022/01/17 01:17:32;;;;;;;32.90;18.20;;;;;;;2.18;85.76;99872.55;84526;1332;23162;-79
2022/01/17 01:19:43;;;;;;;31.60;18.40;;;;;;;2.17;85.87;99863.10;84519;1332;25478;-80
2022/01/17 01:29:44;;;;;;;31.30;17.60;;;;;;;2.09;85.98;99841.67;84515;1332;23932;-80
2022/01/17 01:31:57;;;;;;;27.80;16.20;;;;;;;2.12;85.96;99839.75;84541;1332;25320;-80
2022/01/17 01:34:07;;;;;;;31.60;18.10;;;;;;;2.13;86.10;99834.58;83809;1329;1003814;-79
2022/01/17 01:36:25;;;;;;;28.40;17.80;;;;;;;2.15;86.20;99830.77;84514;1332;22873;-78
2022/01/17 01:38:35;;;;;;;30.70;18.80;;;;;;;2.15;86.19;99814.25;84522;1332;22624;-77
2022/01/17 01:40:44;;;;;;;31.50;18.40;;;;;;;2.15;86.42;99811.84;84539;1333;25313;-79
2022/01/17 01:42:55;;;;;;;34.10;21.60;;;;;;;2.14;86.23;99806.52;84512;1332;22765;-79
2022/01/17 01:45:12;;;;;;;34.30;19.50;;;;;;;2.16;86.29;99809.77;84526;1332;22823;-80
2022/01/17 01:47:27;;;;;;;32.50;18.30;;;;;;;2.17;86.32;99805.96;84470;1335;22619;-80
2022/01/17 01:49:36;;;;;;;31.50;18.10;;;;;;;2.19;86.43;99804.05;84530;1331;22610;-82
2022/01/17 01:51:45;;;;;;;32.30;20.10;;;;;;;2.21;86.69;99803.33;84483;1332;22623;-80
2022/01/17 01:53:55;;;;;;;32.00;19.10;;;;;;;2.22;86.59;99801.79;84531;1335;22604;-80
2022/01/17 01:56:09;;;;;;;34.00;20.20;;;;;;;2.23;86.58;99804.70;84500;1331;22607;-80
2022/01/17 01:58:18;;;;;;;34.70;20.70;;;;;;;2.23;86.74;99802.27;84502;1331;22605;-79
2022/01/17 02:00:30;;;;;;;35.30;19.70;;;;;;;2.24;86.57;99800.54;84515;1329;22600;-79
2022/01/17 02:02:43;;;;;;;30.90;18.20;;;;;;;2.25;86.59;99793.13;84519;1331;24305;-80
2022/01/17 02:04:52;;;;;;;29.10;17.70;;;;;;;2.26;86.88;99788.45;84538;1332;24007;-79
2022/01/17 02:07:05;;;;;;;34.70;18.50;;;;;;;2.29;86.68;99784.30;84440;1335;24018;-79
2022/01/17 02:09:14;;;;;;;29.00;17.70;;;;;;;2.32;86.75;99779.61;84517;1332;22596;-79
2022/01/17 02:11:26;;;;;;;35.90;21.40;;;;;;;2.34;86.81;99773.20;84494;1331;22596;-80
2022/01/17 02:13:37;;;;;;;38.60;20.40;;;;;;;2.35;86.75;99766.14;84538;1332;22637;-80
2022/01/17 02:15:48;;;;;;;33.90;20.30;;;;;;;2.35;86.82;99758.39;84526;1332;25340;-76
2022/01/17 02:18:01;;;;;;;31.30;18.70;;;;;;;2.34;86.73;99754.44;84512;1332;22759;-78
2022/01/17 02:20:20;;;;;;;34.10;20.90;;;;;;;2.35;86.64;99747.88;84494;1331;22614;-79
2022/01/17 02:22:29;;;;;;;33.50;19.70;;;;;;;2.36;86.68;99743.40;84491;1332;22611;-80
2022/01/17 02:24:39;;;;;;;31.60;19.60;;;;;;;2.37;86.66;99749.08;84444;1332;22682;-79
2022/01/17 02:26:48;;;;;;;30.10;19.90;;;;;;;2.38;86.58;99745.28;84506;1332;22705;-80
2022/01/17 02:29:00;;;;;;;34.10;19.90;;;;;;;2.40;86.76;99737.15;84499;1332;25126;-79
2022/01/17 02:31:10;;;;;;;31.50;20.10;;;;;;;2.40;86.71;99735.09;84507;1332;22629;-80
2022/01/17 02:33:19;;;;;;;38.00;21.50;;;;;;;2.39;86.81;99728.39;84508;1332;22872;-80
2022/01/17 02:35:28;;;;;;;34.60;20.80;;;;;;;2.39;86.77;99720.63;84553;1332;22678;-79
2022/01/17 02:37:41;;;;;;;31.20;19.60;;;;;;;2.41;86.64;99716.98;84459;1333;23030;-79
2022/01/17 02:39:50;;;;;;;29.70;18.60;;;;;;;2.43;86.68;99711.97;84503;1335;24019;-78
2022/01/17 02:42:01;;;;;;;30.70;18.80;;;;;;;2.46;86.54;99701.41;84489;1332;22631;-78
2022/01/17 02:44:11;;;;;;;32.50;19.00;;;;;;;2.49;86.73;99693.79;84534;1331;22606;-78
2022/01/17 02:46:26;;;;;;;32.60;19.60;;;;;;;2.52;86.66;99682.23;84466;1334;22631;-79
2022/01/17 02:48:36;;;;;;;33.20;20.90;;;;;;;2.53;86.68;99678.77;84495;1332;23099;-79
2022/01/17 02:50:46;;;;;;;39.50;20.90;;;;;;;2.52;86.58;99671.20;84497;1335;25367;-78
2022/01/17 02:52:59;;;;;;;37.20;21.20;;;;;;;2.51;86.67;99659.86;84455;1331;24016;-78
2022/01/17 02:55:10;;;;;;;33.30;20.40;;;;;;;2.52;86.67;99661.57;84485;1335;22635;-77
2022/01/17 02:57:24;;;;;;;37.00;19.70;;;;;;;2.50;86.65;99652.11;84508;1332;22609;-79
2022/01/17 02:59:35;;;;;;;31.20;18.10;;;;;;;2.52;86.65;99651.24;84495;1332;22831;-79
2022/01/17 03:01:48;;;;;;;31.80;19.20;;;;;;;2.55;86.79;99658.92;84505;1326;22878;-80
2022/01/17 03:03:58;;;;;;;33.30;18.90;;;;;;;2.59;86.82;99654.20;84428;1335;22741;-79
2022/01/17 03:06:07;;;;;;;31.70;19.60;;;;;;;2.62;86.70;99646.42;84493;1329;22618;-79
2022/01/17 03:08:17;;;;;;;32.90;19.90;;;;;;;2.61;86.64;99637.83;84527;1332;22622;-79
2022/01/17 03:10:36;;;;;;;32.80;20.50;;;;;;;2.61;86.71;99636.63;84432;1333;22636;-80
2022/01/17 03:12:48;;;;;;;34.80;20.20;;;;;;;2.60;86.45;99633.86;84490;1332;22698;-79
2022/01/17 03:14:57;;;;;;;33.10;18.60;;;;;;;2.61;86.54;99631.29;84494;1332;22713;-79
2022/01/17 03:17:07;;;;;;;29.40;17.30;;;;;;;2.62;86.53;99625.58;84526;1332;25328;-78
2022/01/17 03:19:16;;;;;;;30.30;17.30;;;;;;;2.64;86.44;99616.76;84420;1333;23861;-79
2022/01/17 03:21:27;;;;;;;33.70;18.90;;;;;;;2.66;86.34;99615.34;84439;1333;22628;-79
2022/01/17 03:23:36;;;;;;;30.10;18.20;;;;;;;2.68;86.39;99622.88;84390;1338;22607;-79
2022/01/17 03:25:45;;;;;;;30.10;19.50;;;;;;;2.69;86.49;99620.12;84450;1330;22916;-80
2022/01/17 03:27:55;;;;;;;30.70;19.20;;;;;;;2.69;86.40;99617.88;84424;1333;22598;-80
2022/01/17 03:30:04;;;;;;;29.50;19.00;;;;;;;2.68;86.45;99612.89;84423;1336;25316;-77
2022/01/17 03:32:13;;;;;;;33.10;19.10;;;;;;;2.69;86.22;99608.92;84446;1333;24280;-79
2022/01/17 03:34:22;;;;;;;30.20;17.70;;;;;;;2.69;86.33;99607.36;84461;1333;22599;-79
2022/01/17 03:36:31;;;;;;;28.10;16.60;;;;;;;2.71;86.18;99604.23;84446;1334;25287;-79
2022/01/17 03:38:43;;;;;;;25.30;15.80;;;;;;;2.74;86.16;99607.11;84437;1335;23021;-78
2022/01/17 03:40:52;;;;;;;26.20;15.70;;;;;;;2.77;86.28;99592.24;84420;1335;22642;-78
2022/01/17 03:43:04;;;;;;;27.10;16.00;;;;;;;2.79;86.21;99595.46;84450;1337;22625;-78
2022/01/17 03:45:15;;;;;;;28.20;18.10;;;;;;;2.80;86.24;99587.86;84430;1334;26550;-78
2022/01/17 03:47:24;;;;;;;30.10;17.20;;;;;;;2.81;86.28;99588.73;84437;1334;23064;-79
2022/01/17 03:49:34;;;;;;;32.50;18.50;;;;;;;2.80;86.06;99587.00;84280;1334;241688;-80
2022/01/17 03:51:43;;;;;;;29.20;17.60;;;;;;;2.80;86.19;99581.14;84458;1333;22564;-80
2022/01/17 03:53:52;;;;;;;25.90;15.80;;;;;;;2.81;86.05;99575.13;84454;1332;22899;-80
2022/01/17 03:56:04;;;;;;;24.70;14.70;;;;;;;2.82;85.91;99567.17;84461;1335;22641;-80
2022/01/17 03:58:13;;;;;;;23.80;14.80;;;;;;;2.84;86.16;99553.52;84446;1334;24149;-80
2022/01/17 04:00:28;;;;;;;26.10;15.60;;;;;;;2.86;85.93;99545.05;84468;1334;24316;-80
2022/01/17 04:02:37;;;;;;;24.40;14.50;;;;;;;2.89;86.09;99541.02;84500;1332;22642;-80
2022/01/17 04:04:46;;;;;;;25.20;16.20;;;;;;;2.91;86.01;99530.48;84461;1332;25467;-80
2022/01/17 04:06:55;;;;;;;28.10;16.80;;;;;;;2.91;86.01;99517.73;84402;1334;24286;-79
2022/01/17 04:09:11;;;;;;;23.50;14.50;;;;;;;2.90;85.96;99506.54;84456;1331;24230;-80
2022/01/17 04:11:20;;;;;;;30.10;14.10;;;;;;;2.89;86.24;99499.66;84391;1335;23934;-79
2022/01/17 04:13:33;;;;;;;22.50;14.50;;;;;;;2.89;85.74;99486.92;84446;1329;22624;-80
2022/01/17 04:15:43;;;;;;;22.40;14.80;;;;;;;2.89;85.97;99482.45;84448;1334;24276;-80
2022/01/17 04:17:54;;;;;;;21.90;14.40;;;;;;;2.90;86.06;99471.73;84412;1336;24005;-81
2022/01/17 04:20:12;;;;;;;25.90;15.30;;;;;;;2.91;86.16;99460.71;84462;1332;22693;-80
2022/01/17 04:22:21;;;;;;;23.00;14.50;;;;;;;2.93;86.00;99458.25;84445;1334;25409;-81
2022/01/17 04:24:30;;;;;;;25.20;14.80;;;;;;;2.94;86.06;99447.70;84494;1332;22599;-80
2022/01/17 04:26:39;;;;;;;23.70;16.20;;;;;;;2.93;86.00;99438.09;84512;1332;22688;-80
2022/01/17 04:28:49;;;;;;;22.90;14.50;;;;;;;2.94;86.07;99434.45;84521;1330;22669;-80
2022/01/17 04:30:59;;;;;;;25.90;14.00;;;;;;;2.93;85.80;99430.70;84461;1332;22946;-80
2022/01/17 04:33:11;;;;;;;21.50;14.80;;;;;;;2.95;85.92;99425.48;84487;1332;22771;-80
2022/01/17 04:35:25;;;;;;;18.40;13.10;;;;;;;2.96;86.02;99417.02;84533;1331;22605;-78
2022/01/17 04:37:34;;;;;;;21.90;13.60;;;;;;;2.98;86.14;99408.35;84470;1330;22914;-79
2022/01/17 04:39:43;;;;;;;23.80;13.90;;;;;;;3.00;86.03;99397.45;84511;1331;22636;-79
2022/01/17 04:41:53;;;;;;;20.90;14.00;;;;;;;3.00;85.78;99394.35;84514;1333;22684;-80
2022/01/17 04:45:07;;;;;;;20.00;13.60;;;;;;;3.00;85.88;99396.41;84501;1332;22620;-80
2022/01/17 04:46:33;;;;;;;25.90;14.80;;;;;;;2.99;86.00;99386.77;84434;1335;22645;-79
2022/01/17 04:48:42;;;;;;;18.30;11.80;;;;;;;2.99;85.76;99391.25;84513;1331;24292;-79
2022/01/17 04:50:51;;;;;;;19.20;13.70;;;;;;;2.99;85.87;99387.11;84510;1326;22599;-79
2022/01/17 04:53:01;;;;;;;19.60;12.10;;;;;;;3.00;85.79;99395.71;84514;1332;23976;-79
2022/01/17 04:55:14;;;;;;;21.00;11.90;;;;;;;3.01;85.84;99386.59;84499;1332;22630;-78
2022/01/17 04:57:23;;;;;;;17.30;11.90;;;;;;;3.03;85.74;99388.61;84539;1333;25358;-79
2022/01/17 04:59:33;;;;;;;18.00;11.80;;;;;;;3.05;85.68;99387.52;84517;1332;22609;-78
2022/01/17 05:01:42;;;;;;;15.60;11.00;;;;;;;3.06;85.71;99385.44;84509;1331;22772;-81
2022/01/17 05:03:52;;;;;;;17.10;11.50;;;;;;;3.06;85.61;99376.14;84439;1335;22612;-80
2022/01/17 05:06:01;;;;;;;20.50;12.20;;;;;;;3.06;85.50;99369.07;84512;1331;22609;-78
2022/01/17 05:08:11;;;;;;;17.70;11.60;;;;;;;3.06;85.40;99367.85;84491;1332;22633;-79
2022/01/17 05:10:23;;;;;;;18.40;9.60;;;;;;;3.07;85.25;99359.05;84520;1331;23050;-77
2022/01/17 05:12:35;;;;;;;18.00;9.80;;;;;;;3.08;85.31;99358.31;84495;1332;22823;-79
2022/01/17 05:14:48;;;;;;;12.70;10.00;;;;;;;3.11;85.27;99358.09;84506;1332;22605;-80
2022/01/17 05:17:06;;;;;;;19.50;10.40;;;;;;;3.14;85.31;99346.80;84497;1332;22608;-80
2022/01/17 05:21:45;;;;;;;13.60;9.20;;;;;;;3.16;84.92;99344.17;84501;1335;24271;-79
2022/01/17 05:23:55;;;;;;;12.30;8.30;;;;;;;3.15;84.59;99336.62;84428;1328;22706;-79
2022/01/17 05:26:04;;;;;;;14.20;10.20;;;;;;;3.17;84.46;99326.05;84499;1331;25455;-80
2022/01/17 05:28:16;;;;;;;14.80;8.50;;;;;;;3.18;84.54;99310.70;84492;1332;22601;-80
2022/01/17 05:30:27;;;;;;;13.20;7.80;;;;;;;3.19;84.37;99293.42;84545;1332;22615;-80
2022/01/17 05:32:39;;;;;;;16.20;7.40;;;;;;;3.22;84.37;99277.15;84473;1333;25681;-79
2022/01/17 05:34:51;;;;;;;14.50;8.10;;;;;;;3.25;84.27;99263.29;84493;1332;22943;-80
2022/01/17 05:37:06;;;;;;;12.70;8.00;;;;;;;3.29;84.27;99265.09;84462;1332;22770;-79
2022/01/17 05:39:21;;;;;;;15.00;8.70;;;;;;;3.30;84.20;99256.27;84528;1332;25514;-79
2022/01/17 05:41:37;;;;;;;12.50;8.90;;;;;;;3.30;83.94;99269.89;84450;1335;22712;-78
2022/01/17 05:43:53;;;;;;;13.70;8.50;;;;;;;3.29;84.08;99273.18;84495;1330;22648;-79
2022/01/17 05:46:03;;;;;;;14.90;9.40;;;;;;;3.29;83.95;99270.25;84462;1333;24121;-80
2022/01/17 05:48:15;;;;;;;;;;;;;;;3.29;83.92;99264.20;84603;1332;22601;-81
2022/01/17 05:50:25;;;;;;;16.30;8.30;;;;;;;3.28;83.76;99252.35;84476;1328;22667;-78
2022/01/17 05:52:37;;;;;;;13.20;8.40;;;;;;;3.30;83.76;99262.83;84468;1332;22698;-78
2022/01/17 05:54:50;;;;;;;9.50;7.40;;;;;;;3.32;83.88;99259.14;84527;1332;23354;-77
2022/01/17 05:57:02;;;;;;;11.50;7.80;;;;;;;3.35;83.81;99250.29;84477;1332;25374;-78
2022/01/17 05:59:14;;;;;;;13.00;9.50;;;;;;;3.38;83.76;99232.09;84494;1332;23932;-79
2022/01/17 06:01:23;;;;;;;13.50;8.10;;;;;;;3.38;83.70;99232.27;84507;1331;22604;-80
2022/01/17 06:03:32;;;;;;;12.20;7.90;;;;;;;3.39;83.60;99227.23;84480;1332;22610;-79
2022/01/17 06:05:41;;;;;;;18.40;8.60;;;;;;;3.39;83.69;99221.73;84494;1331;22595;-79
2022/01/17 06:07:50;;;;;;;10.00;7.00;;;;;;;3.40;83.29;99215.00;84490;1332;22693;-79
2022/01/17 06:10:00;;;;;;;9.10;6.60;;;;;;;3.40;83.31;99207.40;84526;1332;25539;-80
2022/01/17 06:12:12;;;;;;;9.10;6.50;;;;;;;3.40;83.39;99210.14;84469;1331;22603;-78
2022/01/17 06:14:21;;;;;;;12.70;8.30;;;;;;;3.42;83.26;99189.75;84551;1331;23928;-75
2022/01/17 06:16:31;;;;;;;9.40;5.80;;;;;;;3.43;83.28;99185.73;84482;1332;21965;-75
2022/01/17 06:18:40;;;;;;;10.90;6.50;;;;;;;3.44;83.18;99181.91;84484;1331;23892;-77
2022/01/17 06:20:49;;;;;;;12.80;6.70;;;;;;;3.45;83.27;99170.88;84514;1332;23069;-76
2022/01/17 06:22:59;;;;;;;8.90;6.80;;;;;;;3.45;83.27;99159.32;84442;1330;23216;-76
2022/01/17 06:25:11;;;;;;;9.60;6.60;;;;;;;3.44;83.09;99140.20;84409;1337;22740;-79
2022/01/17 06:27:20;;;;;;;10.60;5.60;;;;;;;3.44;83.31;99135.04;84485;1332;25306;-79
2022/01/17 06:29:32;;;;;;;7.40;4.80;;;;;;;3.45;83.27;99127.43;84463;1331;22573;-77
2022/01/17 06:31:42;;;;;;;7.60;5.20;;;;;;;3.45;83.35;99112.95;84503;1331;22672;-77
2022/01/17 06:33:51;;;;;;;10.00;6.00;;;;;;;3.46;83.26;99115.85;84497;1335;22618;-76
2022/01/17 06:36:00;;;;;;;9.40;6.60;;;;;;;3.45;83.45;99101.91;84497;1328;22876;-77
2022/01/17 06:38:10;;;;;;;10.50;5.70;;;;;;;3.46;83.40;99102.23;84448;1333;22817;-77
2022/01/17 06:40:20;;;;;;;10.60;6.60;;;;;;;3.47;83.47;99097.20;84494;1323;22609;-77
2022/01/17 06:42:32;;;;;;;8.40;6.30;;;;;;;3.47;83.52;99080.82;84524;1332;22617;-76
2022/01/17 06:44:45;;;;;;;11.80;6.30;;;;;;;3.47;83.52;99074.96;84428;1335;22716;-76
2022/01/17 06:46:54;;;;;;;9.70;6.00;;;;;;;3.47;83.33;99067.02;84448;1335;22699;-75
2022/01/17 06:49:08;;;;;;;6.30;4.90;;;;;;;3.49;83.56;99043.52;84488;1332;25344;-78
2022/01/17 06:51:20;;;;;;;10.50;5.60;;;;;;;3.50;83.42;99033.86;84473;1332;22609;-78
2022/01/17 06:53:32;;;;;;;12.30;6.00;;;;;;;3.50;83.42;99034.70;84520;1331;24358;-78
2022/01/17 06:55:41;;;;;;;8.60;5.60;;;;;;;3.51;83.55;99041.20;84508;1329;23030;-75
2022/01/17 06:57:53;;;;;;;8.50;5.80;;;;;;;3.52;83.41;99023.59;84492;1335;22637;-75
2022/01/17 07:00:02;;;;;;;8.00;5.00;;;;;;;3.51;83.30;99014.86;84450;1336;22845;-76
2022/01/17 07:02:10;;;;;;;13.60;6.30;;;;;;;3.50;83.25;99030.56;84491;1331;22732;-77
2022/01/17 07:04:21;;;;;;;8.70;4.70;;;;;;;3.51;83.37;99034.67;84494;1332;22625;-77
2022/01/17 07:06:30;;;;;;;8.40;4.30;;;;;;;3.51;83.25;99049.15;84495;1329;22648;-79
2022/01/17 07:08:43;;;;;;;9.00;4.30;;;;;;;3.52;83.29;99050.50;84508;1331;24390;-78
2022/01/17 07:10:52;;;;;;;7.80;3.90;;;;;;;3.53;83.20;99057.36;84452;1330;23051;-78
2022/01/17 07:13:01;;;;;;;7.40;4.10;;;;;;;3.54;83.20;99079.22;84480;1331;22755;-76
2022/01/17 07:15:10;;;;;;;6.50;4.40;;;;;;;3.57;83.16;99087.92;84498;1335;22629;-76
2022/01/17 07:17:20;;;;;;;9.60;4.10;;;;;;;3.59;83.18;99096.99;84480;1327;25536;-76
2022/01/17 07:19:32;;;;;;;5.70;3.50;;;;;;;3.59;83.13;99095.63;84502;1331;22655;-76
2022/01/17 07:21:42;;;;;;;9.00;4.50;;;;;;;3.58;82.97;99074.42;84409;1334;23868;-75
2022/01/17 07:23:51;;;;;;;9.20;4.00;;;;;;;3.57;82.97;99047.77;84496;1332;22596;-76
2022/01/17 07:26:13;;;;;;;5.50;4.20;;;;;;;3.56;82.99;99043.46;84524;1333;24142;-79
2022/01/17 07:28:26;;;;;;;6.30;3.40;;;;;;;3.56;82.94;99044.00;84450;1329;22604;-80
2022/01/17 07:30:36;;;;;;;5.40;3.20;;;;;;;3.57;82.96;99033.45;84467;1332;22676;-77
2022/01/17 07:32:49;;;;;;;5.70;3.60;;;;;;;3.59;83.11;99020.45;84499;1332;22625;-76
2022/01/17 07:34:58;;;;;;;6.10;3.30;;;;;;;3.61;83.23;99002.80;84501;1332;22628;-79
2022/01/17 07:37:08;;;;;;;5.40;3.30;;;;;;;3.60;83.23;98983.67;84503;1333;22600;-80
2022/01/17 07:39:20;;;;;;;10.00;3.60;;;;;;;3.60;83.00;98968.86;84493;1327;22667;-78
2022/01/17 07:41:36;;;;;;;4.20;2.70;;;;;;;3.58;83.15;98953.58;84495;1332;22620;-79
2022/01/17 07:43:47;;;;;;;4.30;2.30;;;;;;;3.57;83.09;98937.56;84492;1331;23855;-80
2022/01/17 07:46:05;;;;;;;6.40;3.60;;;;;;;3.58;82.91;98934.25;84539;1331;22662;-79
2022/01/17 07:50:44;;;;;;;6.20;3.20;;;;;;;3.62;83.15;98903.27;84521;1333;22640;-75
2022/01/17 07:52:56;;;;;;;6.80;2.90;;;;;;;3.64;82.94;98891.30;84419;1335;22694;-72
2022/01/17 07:55:07;;;;;;;5.30;2.60;;;;;;;3.67;83.09;98867.58;84531;1327;22730;-77
2022/01/17 07:57:20;;;;;;;5.10;3.10;;;;;;;3.66;83.21;98862.27;84493;1331;22596;-76
2022/01/17 07:59:29;;;;;;;6.10;3.60;;;;;;;3.66;83.19;98856.61;84521;1332;22626;-79
2022/01/17 08:01:41;;;;;;;8.60;3.70;;;;;;;3.65;83.57;98840.60;84500;1332;24034;-79
2022/01/17 08:03:51;;;;;;;7.30;2.80;;;;;;;3.64;83.48;98829.40;84512;1332;22693;-80
2022/01/17 08:06:00;;;;;;;6.00;2.80;;;;;;;3.64;83.56;98822.67;84567;1332;22612;-78
2022/01/17 08:08:10;;;;;;;4.60;3.00;;;;;;;3.65;83.62;98821.29;84505;1331;22618;-78
2022/01/17 08:10:19;;;;;;;5.20;3.50;;;;;;;3.66;83.63;98823.86;84516;1330;22626;-81
2022/01/17 08:12:28;;;;;;;5.90;3.20;;;;;;;3.66;83.85;98829.85;84483;1332;22631;-81
2022/01/17 08:14:37;;;;;;;4.90;3.20;;;;;;;3.67;83.85;98829.83;84516;1332;22626;-80
2022/01/17 08:16:48;;;;;;;4.70;2.90;;;;;;;3.68;83.94;98823.77;84493;1332;24412;-80
2022/01/17 08:19:16;;;;;;;7.80;4.20;;;;;;;3.67;83.86;98830.87;84470;1335;22600;-76
2022/01/17 08:21:26;;;;;;;12.70;3.60;;;;;;;3.66;84.07;98836.59;84466;1333;22619;-80
2022/01/17 08:23:36;;;;;;;9.40;3.70;;;;;;;3.67;84.11;98833.45;84479;1335;22638;-80
2022/01/17 08:25:45;;;;;;;7.40;2.80;;;;;;;3.70;84.22;98818.68;84458;1334;25464;-79
2022/01/17 08:27:54;;;;;;;9.30;2.60;;;;;;;3.72;84.05;98797.91;84454;1333;23993;-80
2022/01/17 08:30:03;;;;;;;4.80;2.80;;;;;;;3.75;84.04;98817.84;84483;1332;22627;-76
2022/01/17 08:32:13;;;;;;;4.90;3.40;;;;;;;3.76;84.19;98805.36;84515;1330;22926;-75
2022/01/17 08:34:22;;;;;;;5.70;3.50;;;;;;;3.77;84.10;98793.40;84498;1333;24032;-81
2022/01/17 08:36:34;;;;;;;7.50;3.10;;;;;;;3.78;84.02;98810.98;84448;1330;24452;-80
2022/01/17 08:38:45;;;;;;;5.50;2.50;;;;;;;3.79;83.92;98800.92;84485;1335;22660;-80
2022/01/17 08:40:54;;;;;;;4.90;2.60;;;;;;;3.80;83.89;98786.59;84509;1333;22598;-80
2022/01/17 08:43:04;;;;;;;5.10;3.40;;;;;;;3.82;83.69;98778.41;84454;1335;24259;-81
2022/01/17 08:45:17;;;;;;;6.80;2.00;;;;;;;3.83;83.62;98778.02;84498;1331;22572;-80
2022/01/17 08:47:26;;;;;;;6.40;3.00;;;;;;;3.84;83.51;98781.44;84503;1332;22609;-80
2022/01/17 08:49:34;;;;;;;4.90;2.30;;;;;;;3.86;83.48;98777.23;84510;1331;22618;-81
2022/01/17 08:51:44;;;;;;;6.30;1.80;;;;;;;3.87;83.65;98809.98;84481;1333;22683;-81
2022/01/17 08:53:53;;;;;;;12.90;5.30;;;;;;;3.85;83.59;98914.23;84463;1333;22785;-80
2022/01/17 08:56:04;;;;;;;5.70;2.20;;;;;;;3.82;83.76;99044.38;84506;1328;22621;-81
2022/01/17 08:58:14;;;;;;;1.60;0.70;;;;;;;3.57;80.34;99101.39;84484;1330;22623;-80
2022/01/17 09:00:23;;;;;;;2.50;0.80;;;;;;;3.13;78.50;99121.27;84485;1334;22850;-75
2022/01/17 09:02:35;;;;;;;0.80;0.40;;;;;;;2.69;78.90;99134.17;84477;1329;22592;-75
2022/01/17 09:04:44;;;;;;;0.90;0.70;;;;;;;2.30;79.02;99120.70;84526;1329;22626;-79
2022/01/17 09:06:56;;;;;;;2.30;1.20;;;;;;;1.93;79.91;99129.64;84456;1332;22608;-80
2022/01/17 09:09:08;;;;;;;1.70;0.80;;;;;;;1.65;80.86;99139.22;84496;1332;24290;-76
2022/01/17 09:11:17;;;;;;;1.90;0.60;;;;;;;1.36;81.79;99135.00;84463;1332;23214;-79
2022/01/17 09:13:29;;;;;;;0.90;0.70;;;;;;;1.15;82.65;99147.80;84450;1333;22731;-80
2022/01/17 09:15:38;;;;;;;1.70;0.70;;;;;;;1.03;82.81;99153.36;84507;1332;22708;-76
2022/01/17 09:17:47;;;;;;;1.30;0.60;;;;;;;0.97;83.45;99158.80;84480;1332;26624;-76
2022/01/17 09:20:00;;;;;;;1.20;0.60;;;;;;;0.94;83.51;99159.19;84487;1332;22642;-76
2022/01/17 09:22:10;;;;;;;3.30;1.20;;;;;;;0.94;83.68;99160.91;84414;1335;22606;-75
2022/01/17 09:24:22;;;;;;;3.10;1.40;;;;;;;0.91;83.67;99172.63;84419;1333;25404;-79
2022/01/17 09:26:31;;;;;;;1.60;0.70;;;;;;;0.91;83.54;99170.06;84507;1331;22913;-80
2022/01/17 09:28:41;;;;;;;3.00;1.30;;;;;;;0.90;83.47;99171.78;84526;1333;24357;-79
2022/01/17 09:30:50;;;;;;;1.00;0.90;;;;;;;0.87;83.44;99177.52;84545;1332;22599;-75
2022/01/17 09:32:59;;;;;;;1.30;0.60;;;;;;;0.82;83.47;99180.52;84498;1332;23947;-76
2022/01/17 09:35:10;;;;;;;3.40;0.80;;;;;;;0.81;83.66;99191.52;84560;1323;22638;-76
2022/01/17 09:37:19;;;;;;;1.20;0.50;;;;;;;0.81;83.55;99199.25;84521;1331;24239;-76
2022/01/17 09:39:32;;;;;;;3.40;1.20;;;;;;;0.78;83.69;99197.92;84542;1332;22722;-78
2022/01/17 09:41:45;;;;;;;1.60;0.90;;;;;;;0.81;83.69;99177.09;84504;1332;22638;-78
2022/01/17 09:43:54;;;;;;;1.60;0.60;;;;;;;0.87;83.92;99178.21;84494;1333;22619;-79
2022/01/17 09:46:04;;;;;;;1.30;0.60;;;;;;;0.92;84.13;99160.42;84498;1332;22636;-77
2022/01/17 09:48:19;;;;;;;2.00;0.90;;;;;;;0.92;83.90;99170.89;84457;1332;22616;-77
2022/01/17 09:50:45;;;;;;;1.50;0.90;;;;;;;0.90;83.58;99168.02;84441;1334;23242;-81
2022/01/17 09:52:56;;;;;;;1.80;0.90;;;;;;;0.87;83.66;99166.52;84420;1335;25288;-81
2022/01/17 09:55:10;;;;;;;3.40;1.10;;;;;;;0.86;83.92;99164.48;84528;1332;22612;-77
2022/01/17 09:57:19;;;;;;;1.20;0.90;;;;;;;0.86;83.74;99154.88;84488;1329;22727;-77
2022/01/17 09:59:33;;;;;;;1.80;0.90;;;;;;;0.85;83.79;99150.77;84519;1331;25529;-80
2022/01/17 10:01:55;;;;;;;3.00;1.30;;;;;;;0.87;83.88;99155.37;84520;1333;22617;-78
2022/01/17 10:04:09;;;;;;;2.60;1.50;;;;;;;0.91;83.88;99144.81;84507;1331;24242;-77
2022/01/17 10:06:21;;;;;;;3.10;1.30;;;;;;;0.91;83.65;99160.08;84513;1331;25325;-79
2022/01/17 10:08:34;;;;;;;2.60;1.50;;;;;;;0.90;83.58;99175.05;84496;1335;22608;-80
2022/01/17 10:10:50;;;;;;;3.70;2.20;;;;;;;0.90;83.57;99190.18;84494;1332;23069;-79
2022/01/17 10:12:59;;;;;;;3.20;2.00;;;;;;;0.88;83.57;99184.36;84531;1327;22610;-79
2022/01/17 10:15:21;;;;;;;2.90;1.50;;;;;;;0.89;83.58;99185.05;84555;1331;25506;-79
2022/01/17 10:17:46;;;;;;;2.60;1.60;;;;;;;0.90;83.83;99191.05;84501;1330;22619;-77
2022/01/17 10:20:07;;;;;;;1.90;1.50;;;;;;;0.91;83.58;99204.23;84506;1335;22623;-78
2022/01/17 10:22:33;;;;;;;3.10;2.40;;;;;;;0.93;83.49;99193.38;84506;1332;22619;-77
2022/01/17 10:24:59;;;;;;;3.50;1.90;;;;;;;0.98;83.45;99195.84;84531;1335;22607;-79
2022/01/17 10:27:21;;;;;;;4.00;1.90;;;;;;;1.00;83.12;99186.36;84508;1332;24313;-78
2022/01/17 10:36:59;;;;;;;2.50;1.30;;;;;;;1.04;82.85;99205.38;84429;1334;22646;-79